Oberlin, Louisiana
Current Conditions -  °F | °C
As of 3:35 PM on Thursday 18 Dec 2014 (Local Time) from KACP Reporting Station
Overcast Overcast  
Wind Chill: 54°   Ceiling: 500
Heat Index: 54°   Visibility: 10mi
Dew Point: 52°   Wind: 5mph
Humidity: 92%   Direction: 40°NE
Pressure: 30.09"   Gusts: NA
Location:  30.62°N, 92.76°W
Report Text: KACP 182135Z AUTO 04004KT 10SM OVC005 12/11 A3009 RMK AO2 T01230111
Loading
Personal Weather Stations






























Interactive Weather Map New forecast layout! Learn more

10-Day Weather Forecast

Advertisements
Track Severe Weather on mobile